Deerfield, Kansas
Current Conditions -  °F | °C
As of 12:54 AM on Tuesday 21 Oct 2014 (Local Time) from KGCK Reporting Station
Clear Clear  
Wind Chill: 50°   Ceiling: Unl
Heat Index: 50°   Visibility: 10mi
Dew Point: 42°   Wind: 6mph
Humidity: 74%   Direction: 140°SE
Pressure: 30.09"   Gusts: NA
Location:  37.98°N, 101.13°W
Report Text: KGCK 210554Z AUTO 14005KT 10SM CLR 10/06 A3009 RMK AO2 SLP170 T01000056 10189 20100 402500072 58006
Loading
Personal Weather Stations






























Interactive Weather Map
Tropical Storm Tracking
New forecast layout! Learn more

10-Day Weather Forecast

Advertisements
Track Severe Weather on mobile